Time;durP1;ratioP1;P1;durP2;ratioP2;P2;SDS_P1;SDS_P2;PMS_P1;PMS_P2;Temp;Humidity;BMP_temperature;BMP_pressure;BME280_temperature;BME280_humidity;BME280_pressure;Samples;Min_cycle;Max_cycle;Signal;HPM_P1;HPM_P2
2022/09/01 00:01:42;;;;;;;;;;;;;;;16.83;100.00;100020.72;5057342;28;19928;-81
2022/09/01 00:04:11;;;;;;;;;;;;;;;16.92;100.00;100022.94;5057155;28;19950;-81
2022/09/01 00:06:40;;;;;;;;;;;;;;;16.99;100.00;100023.53;5057197;28;20318;-80
2022/09/01 00:09:08;;;;;;;;;;;;;;;16.86;100.00;100021.84;5056090;28;19948;-80
2022/09/01 00:11:36;;;;;;;;;;;;;;;17.19;100.00;100014.91;5057120;28;20364;-80
2022/09/01 00:14:05;;;;;;;;;;;;;;;17.19;100.00;100014.91;5041142;28;20449;-80
2022/09/01 00:16:32;;;;;;;;;;;;;;;17.19;100.00;100014.91;5060092;28;20011;-80
2022/09/01 00:18:59;;;;;;;;;;;;;;;17.25;100.00;100001.84;5094777;28;19928;-81
2022/09/01 00:21:28;;;;;;;;;;;;;;;17.04;100.00;100003.19;5060046;28;20272;-81
2022/09/01 00:23:55;;;;;;;;;;;;;;;17.04;100.00;99996.78;5077045;28;20275;-80
2022/09/01 00:26:22;;;;;;;;;;;;;;;17.08;100.00;100000.28;5059683;28;19931;-81
2022/09/01 00:28:50;;;;;;;;;;;;;;;16.96;100.00;100012.31;5060117;28;19978;-81
2022/09/01 00:31:18;;;;;;;;;;;;;;;17.27;100.00;100010.63;5027587;28;19977;-80
2022/09/01 00:33:46;;;;;;;;;;;;;;;17.04;100.00;99999.59;5043745;28;19924;-81
2022/09/01 00:36:14;;;;;;;;;;;;;;;17.12;100.00;99995.31;5059953;28;19998;-81
2022/09/01 00:38:41;;;;;;;;;;;;;;;17.31;100.00;100005.69;5059986;28;19924;-81
2022/09/01 00:41:09;;;;;;;;;;;;;;;17.31;100.00;100000.06;5043244;28;19925;-80
2022/09/01 00:43:38;;;;;;;;;;;;;;;17.24;100.00;100001.03;5076579;28;19924;-81
2022/09/01 00:46:07;;;;;;;;;;;;;;;17.14;100.00;99992.88;5060188;28;19928;-80
2022/09/01 00:48:35;;;;;;;;;;;;;;;17.24;100.00;99995.38;5059841;28;20376;-80
2022/09/01 00:51:03;;;;;;;;;;;;;;;17.13;100.00;99994.88;5059947;28;19924;-80
2022/09/01 00:53:31;;;;;;;;;;;;;;;17.05;100.00;99992.72;5060096;28;19947;-80
2022/09/01 00:55:59;;;;;;;;;;;;;;;17.15;100.00;99991.63;5076641;28;19928;-80
2022/09/01 00:58:26;;;;;;;;;;;;;;;16.74;100.00;99978.22;5094455;28;19962;-80
2022/09/01 01:00:53;;;;;;;;;;;;;;;16.57;100.00;99989.97;5060001;28;19924;-80
2022/09/01 01:03:20;;;;;;;;;;;;;;;16.83;100.00;99992.50;5043111;28;19942;-80
2022/09/01 01:05:56;;;;;;;;;;;;;;;16.65;100.00;99980.06;5075902;28;20027;-80
2022/09/01 01:08:36;;;;;;;;;;;;;;;16.86;100.00;99979.50;5076493;28;19924;-80
2022/09/01 01:11:08;;;;;;;;;;;;;;;16.88;100.00;99971.41;5076607;28;19924;-80
2022/09/01 01:13:53;;;;;;;;;;;;;;;16.81;100.00;99977.25;5059874;28;19928;-80
2022/09/01 01:16:22;;;;;;;;;;;;;;;16.96;100.00;99979.25;5076452;28;19963;-80
2022/09/01 01:18:49;;;;;;;;;;;;;;;16.99;100.00;99980.38;5072286;28;19929;-81
2022/09/01 01:24:09;;;;;;;;;;;;;;;16.63;100.00;99982.56;5056244;28;19924;-81
2022/09/01 01:26:36;;;;;;;;;;;;;;;16.61;100.00;99973.75;5039560;28;19950;-80
2022/09/01 01:29:07;;;;;;;;;;;;;;;16.68;100.00;99970.72;5039963;28;19925;-81
2022/09/01 01:31:34;;;;;;;;;;;;;;;16.73;100.00;99962.53;5056223;28;19925;-81
2022/09/01 01:34:05;;;;;;;;;;;;;;;16.73;100.00;99958.91;5055945;28;20016;-81
2022/09/01 01:36:35;;;;;;;;;;;;;;;16.69;100.00;99958.22;5056264;28;20015;-81
2022/09/01 01:39:09;;;;;;;;;;;;;;;16.78;100.00;99964.03;5039845;28;19932;-81
2022/09/01 01:41:41;;;;;;;;;;;;;;;16.90;100.00;99963.28;5072956;28;19924;-80
2022/09/01 01:44:11;;;;;;;;;;;;;;;16.78;100.00;99961.19;5056288;28;20019;-81
2022/09/01 01:46:41;;;;;;;;;;;;;;;17.07;100.00;99962.00;5055878;28;20070;-81
2022/09/01 01:49:12;;;;;;;;;;;;;;;16.88;100.00;99966.56;5039405;28;19925;-81
2022/09/01 01:51:40;;;;;;;;;;;;;;;16.71;100.00;99961.38;5056170;28;19932;-81
2022/09/01 01:54:07;;;;;;;;;;;;;;;16.45;100.00;99948.38;5072750;28;20282;-81
2022/09/01 01:56:40;;;;;;;;;;;;;;;16.66;100.00;99956.28;5039749;28;20291;-81
2022/09/01 01:59:12;;;;;;;;;;;;;;;16.91;100.00;99960.03;5056041;28;19970;-81
2022/09/01 02:01:41;;;;;;;;;;;;;;;16.77;100.00;99953.94;5072671;28;19924;-81
2022/09/01 02:04:10;;;;;;;;;;;;;;;16.52;100.00;99948.19;5072519;28;19932;-81
2022/09/01 02:06:40;;;;;;;;;;;;;;;16.91;100.00;99948.72;5055988;28;19925;-80
2022/09/01 02:09:07;;;;;;;;;;;;;;;16.80;100.00;99948.22;5056101;28;19931;-80
2022/09/01 02:11:36;;;;;;;;;;;;;;;16.74;100.00;99954.84;5072676;28;19925;-80
2022/09/01 02:14:06;;;;;;;;;;;;;;;16.77;100.00;99953.94;5055796;28;20310;-80
2022/09/01 02:16:33;;;;;;;;;;;;;;;16.85;100.00;99955.34;5039168;28;19929;-81
2022/09/01 02:19:03;;;;;;;;;;;;;;;16.71;100.00;99953.69;5038965;28;19970;-80
2022/09/01 02:21:31;;;;;;;;;;;;;;;16.72;100.00;99957.31;5039313;28;19931;-80
2022/09/01 02:23:59;;;;;;;;;;;;;;;16.77;100.00;99959.59;5072326;28;19978;-80
2022/09/01 02:26:33;;;;;;;;;;;;;;;16.63;100.00;99951.53;5072425;28;19931;-80
2022/09/01 02:29:03;;;;;;;;;;;;;;;16.81;100.00;99961.09;5072322;28;19924;-80
2022/09/01 02:31:34;;;;;;;;;;;;;;;16.82;100.00;99950.59;5038703;28;19936;-80
2022/09/01 02:34:03;;;;;;;;;;;;;;;16.78;100.00;99950.69;5042477;28;19928;-80
2022/09/01 02:36:33;;;;;;;;;;;;;;;16.77;100.00;99943.47;5075740;28;20027;-80
2022/09/01 02:39:01;;;;;;;;;;;;;;;16.76;100.00;99943.91;5059048;28;19925;-80
2022/09/01 02:41:31;;;;;;;;;;;;;;;16.52;100.00;99942.53;5042994;28;20383;-80
2022/09/01 02:44:01;;;;;;;;;;;;;;;16.77;100.00;99939.84;5075811;28;19924;-80
2022/09/01 02:46:29;;;;;;;;;;;;;;;16.51;100.00;99940.97;5075594;28;19925;-80
2022/09/01 02:48:59;;;;;;;;;;;;;;;16.86;100.00;99940.00;5059052;28;19928;-80
2022/09/01 02:51:26;;;;;;;;;;;;;;;16.66;100.00;99936.53;5075464;28;19928;-80
2022/09/01 02:53:53;;;;;;;;;;;;;;;16.69;100.00;99941.28;5076811;28;20314;-80
2022/09/01 02:56:22;;;;;;;;;;;;;;;16.47;100.00;99937.41;5042355;28;19928;-80
2022/09/01 02:58:50;;;;;;;;;;;;;;;16.48;100.00;99936.97;5058769;28;19978;-80
2022/09/01 03:01:20;;;;;;;;;;;;;;;16.70;100.00;99937.22;5075003;28;19931;-80
2022/09/01 03:03:48;;;;;;;;;;;;;;;16.48;100.00;99919.28;5075284;28;19931;-80
2022/09/01 03:06:18;;;;;;;;;;;;;;;16.84;100.00;99925.56;5058429;28;19924;-80
2022/09/01 03:08:46;;;;;;;;;;;;;;;16.37;100.00;99925.16;5042218;28;19924;-80
2022/09/01 03:11:13;;;;;;;;;;;;;;;16.33;100.00;99912.41;5075254;28;20287;-80
2022/09/01 03:13:41;;;;;;;;;;;;;;;16.59;100.00;99928.22;5058435;28;19925;-80
2022/09/01 03:16:09;;;;;;;;;;;;;;;16.55;100.00;99925.53;5074774;28;20023;-80
2022/09/01 03:18:36;;;;;;;;;;;;;;;16.84;100.00;99919.91;5044527;28;19968;-81
2022/09/01 03:21:05;;;;;;;;;;;;;;;16.71;100.00;99916.22;5061773;28;19924;-81
2022/09/01 03:23:32;;;;;;;;;;;;;;;16.52;100.00;99914.31;5061538;28;19928;-81
2022/09/01 03:26:00;;;;;;;;;;;;;;;16.52;100.00;99914.31;5028585;28;19924;-80
2022/09/01 03:28:27;;;;;;;;;;;;;;;16.63;100.00;99920.50;5061183;28;19924;-80
2022/09/01 03:30:56;;;;;;;;;;;;;;;16.62;100.00;99913.25;5077982;28;19924;-80
2022/09/01 03:33:24;;;;;;;;;;;;;;;16.68;100.00;99919.94;5078082;28;19931;-80
2022/09/01 03:35:54;;;;;;;;;;;;;;;16.38;100.00;99920.31;5061192;28;19977;-80
2022/09/01 03:38:23;;;;;;;;;;;;;;;16.33;100.00;99918.03;5077906;28;19977;-80
2022/09/01 03:40:53;;;;;;;;;;;;;;;16.34;100.00;99913.97;5061203;28;19935;-80
2022/09/01 03:43:23;;;;;;;;;;;;;;;16.27;100.00;99919.81;5077834;28;20267;-80
2022/09/01 03:45:50;;;;;;;;;;;;;;;16.30;100.00;99916.88;5044077;28;20279;-80
2022/09/01 03:48:18;;;;;;;;;;;;;;;16.25;100.00;99920.25;5061016;28;19931;-80
2022/09/01 03:50:46;;;;;;;;;;;;;;;16.34;100.00;99913.97;5044547;28;19928;-80
2022/09/01 03:53:14;;;;;;;;;;;;;;;16.29;100.00;99918.13;5061048;28;19924;-80
2022/09/01 03:55:43;;;;;;;;;;;;;;;16.24;100.00;99910.97;5061147;28;20302;-80
2022/09/01 03:58:13;;;;;;;;;;;;;;;16.15;100.00;99913.63;5060432;28;19931;-80
2022/09/01 04:00:42;;;;;;;;;;;;;;;16.30;100.00;99907.63;5044503;28;19930;-80
2022/09/01 04:03:12;;;;;;;;;;;;;;;16.30;100.00;99902.00;5061435;28;19947;-80
2022/09/01 04:05:43;;;;;;;;;;;;;;;16.25;100.00;99906.91;5077186;28;19924;-80
2022/09/01 04:08:11;;;;;;;;;;;;;;;16.34;100.00;99902.69;5060685;28;19924;-80
2022/09/01 04:10:48;;;;;;;;;;;;;;;16.37;100.00;99904.63;5077135;28;20291;-80
2022/09/01 04:13:36;;;;;;;;;;;;;;;16.38;100.00;99900.56;5077000;28;19925;-81
2022/09/01 04:18:03;;;;;;;;;;;;;;;16.32;100.00;99900.31;5060310;28;19928;-80
2022/09/01 04:18:59;;;;;;;;;;;;;;;16.45;100.00;99897.59;5060013;28;19955;-81
2022/09/01 04:21:29;;;;;;;;;;;;;;;16.33;100.00;99899.06;5077138;28;20405;-80
2022/09/01 04:24:04;;;;;;;;;;;;;;;16.27;100.00;99897.25;5060335;28;19924;-80
2022/09/01 04:26:32;;;;;;;;;;;;;;;16.44;100.00;99898.81;5060116;28;19931;-80
2022/09/01 04:28:59;;;;;;;;;;;;;;;16.43;100.00;99894.38;5076498;28;19966;-80
2022/09/01 04:31:29;;;;;;;;;;;;;;;16.47;100.00;99893.09;5060393;28;20015;-81
2022/09/01 04:33:57;;;;;;;;;;;;;;;16.27;100.00;99883.13;5060014;28;19924;-80
2022/09/01 04:36:26;;;;;;;;;;;;;;;16.19;100.00;99885.34;5060483;28;19931;-80
2022/09/01 04:38:55;;;;;;;;;;;;;;;16.30;100.00;99885.06;5076732;28;20023;-80
2022/09/01 04:41:26;;;;;;;;;;;;;;;16.37;100.00;99885.69;5076544;28;20386;-81
2022/09/01 04:43:56;;;;;;;;;;;;;;;16.60;100.00;99885.47;5059757;28;19935;-81
2022/09/01 04:46:27;;;;;;;;;;;;;;;16.59;100.00;99880.28;5076871;28;20066;-80
2022/09/01 04:48:54;;;;;;;;;;;;;;;16.67;100.00;99878.84;5059999;28;19931;-80
2022/09/01 04:51:26;;;;;;;;;;;;;;;16.43;100.00;99883.09;5059964;28;19932;-80
2022/09/01 04:53:54;;;;;;;;;;;;;;;15.93;100.00;99878.72;5060109;28;20298;-80
2022/09/01 04:56:24;;;;;;;;;;;;;;;16.19;100.00;99886.13;5059274;28;19963;-80
2022/09/01 04:59:05;;;;;;;;;;;;;;;16.23;100.00;99875.56;5076395;28;19928;-80
2022/09/01 05:01:42;;;;;;;;;;;;;;;16.22;100.00;99876.78;5060066;28;20382;-80
2022/09/01 05:04:32;;;;;;;;;;;;;;;16.04;100.00;99878.47;5076367;28;20011;-80
2022/09/01 05:07:01;;;;;;;;;;;;;;;16.19;100.00;99883.31;5043243;28;19928;-80
2022/09/01 05:09:34;;;;;;;;;;;;;;;16.25;100.00;99878.72;5058854;28;19928;-81
2022/09/01 05:12:15;;;;;;;;;;;;;;;16.41;100.00;99875.09;5060650;28;19967;-80
2022/09/01 05:14:47;;;;;;;;;;;;;;;16.42;100.00;99875.91;5043355;28;19924;-80
2022/09/01 05:17:20;;;;;;;;;;;;;;;16.28;100.00;99877.06;5060564;28;20251;-81
2022/09/01 05:19:49;;;;;;;;;;;;;;;16.02;100.00;99866.84;5076105;28;19924;-81
2022/09/01 05:22:21;;;;;;;;;;;;;;;15.96;100.00;99871.44;5059400;28;19924;-80
2022/09/01 05:25:01;;;;;;;;;;;;;;;16.30;100.00;99871.75;5060447;28;19924;-80
2022/09/01 05:27:29;;;;;;;;;;;;;;;16.03;100.00;99874.88;5059086;28;19931;-80
2022/09/01 05:30:00;;;;;;;;;;;;;;;16.09;100.00;99873.09;5059790;28;19959;-81
2022/09/01 05:32:32;;;;;;;;;;;;;;;16.40;100.00;99867.88;5059315;28;20022;-81
2022/09/01 05:34:59;;;;;;;;;;;;;;;16.32;100.00;99877.75;5059277;28;19924;-81
2022/09/01 05:37:29;;;;;;;;;;;;;;;16.10;100.00;99868.25;5075883;28;19924;-80
2022/09/01 05:39:57;;;;;;;;;;;;;;;16.25;100.00;99873.06;5075794;28;19956;-80
2022/09/01 05:42:25;;;;;;;;;;;;;;;15.98;100.00;99866.94;5059360;28;19928;-80
2022/09/01 05:44:52;;;;;;;;;;;;;;;16.27;100.00;99864.97;5059231;28;19924;-80
2022/09/01 05:47:24;;;;;;;;;;;;;;;16.29;100.00;99861.72;5058700;28;19931;-80
2022/09/01 05:49:54;;;;;;;;;;;;;;;16.45;100.00;99866.56;5059334;28;20038;-80
2022/09/01 05:52:23;;;;;;;;;;;;;;;16.25;100.00;99861.03;5059102;28;19924;-80
2022/09/01 05:54:52;;;;;;;;;;;;;;;16.24;100.00;99860.22;5058887;28;19931;-80
2022/09/01 05:57:20;;;;;;;;;;;;;;;16.14;100.00;99868.97;5075781;28;19934;-80
2022/09/01 06:00:09;;;;;;;;;;;;;;;16.30;100.00;99868.94;5059170;28;20252;-81
2022/09/01 06:02:41;;;;;;;;;;;;;;;16.27;100.00;99864.97;5042811;28;19924;-79
2022/09/01 06:05:14;;;;;;;;;;;;;;;16.54;100.00;99861.84;5068220;28;20379;-79
2022/09/01 06:07:41;;;;;;;;;;;;;;;16.43;100.00;99860.53;5056382;28;19928;-78
2022/09/01 06:10:13;;;;;;;;;;;;;;;16.23;100.00;99863.50;5058744;28;19928;-80
2022/09/01 06:12:41;;;;;;;;;;;;;;;16.35;100.00;99856.31;5075434;28;19924;-80
2022/09/01 06:15:14;;;;;;;;;;;;;;;16.38;100.00;99863.88;5075816;28;19927;-79
2022/09/01 06:17:45;;;;;;;;;;;;;;;16.33;100.00;99864.44;5075771;28;20624;-79
2022/09/01 06:20:12;;;;;;;;;;;;;;;16.51;100.00;99873.25;5075461;28;19924;-80
2022/09/01 06:22:42;;;;;;;;;;;;;;;16.50;100.00;99871.66;5057420;28;19924;-80
2022/09/01 06:25:10;;;;;;;;;;;;;;;16.09;100.00;99875.94;5075559;28;20424;-79
2022/09/01 06:27:41;;;;;;;;;;;;;;;16.39;100.00;99876.78;5075631;28;19924;-79
2022/09/01 06:30:16;;;;;;;;;;;;;;;16.58;100.00;99875.88;5075245;28;19924;-79
2022/09/01 06:32:52;;;;;;;;;;;;;;;16.48;100.00;99868.50;5058656;28;19930;-79
2022/09/01 06:35:20;;;;;;;;;;;;;;;16.10;100.00;99866.22;5092994;28;19932;-79
2022/09/01 06:37:47;;;;;;;;;;;;;;;16.36;100.00;99872.03;5075075;28;20027;-80
2022/09/01 06:40:32;;;;;;;;;;;;;;;16.52;100.00;99872.00;5093148;28;19925;-80
2022/09/01 06:43:01;;;;;;;;;;;;;;;16.67;100.00;99870.38;5075476;28;19924;-80
2022/09/01 06:45:28;;;;;;;;;;;;;;;16.62;100.00;99859.63;5075239;28;19928;-80
2022/09/01 06:47:56;;;;;;;;;;;;;;;17.06;100.00;99865.22;5058027;28;19924;-80
2022/09/01 06:50:23;;;;;;;;;;;;;;;16.61;100.00;99869.34;5075420;28;20333;-79
2022/09/01 06:53:10;;;;;;;;;;;;;;;17.00;100.00;99863.38;5074105;28;19950;-78
2022/09/01 06:55:58;;;;;;;;;;;;;;;16.61;100.00;99869.34;5047081;28;19989;-79
2022/09/01 06:58:25;;;;;;;;;;;;;;;16.80;100.00;99862.75;5061511;28;20332;-78
2022/09/01 07:00:52;;;;;;;;;;;;;;;17.03;100.00;99865.31;5061500;28;19924;-77
2022/09/01 07:03:21;;;;;;;;;;;;;;;17.32;100.00;99860.41;5061635;28;19928;-78
2022/09/01 07:06:06;;;;;;;;;;;;;;;17.42;100.00;99853.63;5078194;28;19987;-77
2022/09/01 07:09:06;;;;;;;;;;;;;;;17.29;100.00;99847.97;4997136;28;19926;-78
2022/09/01 07:12:07;;;;;;;;;;;;;;;17.81;100.00;99853.22;5002098;28;19925;-78
2022/09/01 07:14:51;;;;;;;;;;;;;;;17.76;100.00;99850.94;4997455;28;19925;-78
2022/09/01 07:17:40;;;;;;;;;;;;;;;17.33;100.00;99847.84;4996995;28;19929;-78
2022/09/01 07:20:10;;;;;;;;;;;;;;;17.32;100.00;99843.44;4980174;28;19966;-78
2022/09/01 07:22:54;;;;;;;;;;;;;;;17.04;100.00;99856.38;5013437;28;20024;-78
2022/09/01 07:25:40;;;;;;;;;;;;;;;17.06;100.00;99858.75;4996927;28;20029;-78
2022/09/01 07:28:32;;;;;;;;;;;;;;;17.00;100.00;99863.38;5013183;28;20384;-78
2022/09/01 07:31:04;;;;;;;;;;;;;;;17.14;100.00;99865.78;4997144;28;19925;-78
2022/09/01 07:33:53;;;;;;;;;;;;;;;17.41;100.00;99857.69;4996734;28;19931;-78
2022/09/01 07:36:21;;;;;;;;;;;;;;;17.73;100.00;99858.31;4996685;28;19926;-78
2022/09/01 07:38:55;;;;;;;;;;;;;;;17.98;100.00;99859.53;4996742;28;19932;-78
2022/09/01 07:41:54;;;;;;;;;;;;;;;17.83;100.00;99856.34;5013012;28;20397;-78
2022/09/01 07:45:11;;;;;;;;;;;;;;;17.95;100.00;99858.38;5050692;28;19924;-78
2022/09/01 07:48:05;;;;;;;;;;;;;;;17.88;100.00;99852.97;5076971;28;19967;-78
2022/09/01 07:50:45;;;;;;;;;;;;;;;17.47;100.00;99861.56;5060277;28;19924;-78
2022/09/01 07:53:34;;;;;;;;;;;;;;;17.67;100.00;99859.31;5077172;28;19924;-78
2022/09/01 07:56:08;;;;;;;;;;;;;;;17.78;100.00;99860.56;5060411;28;20425;-78
2022/09/01 07:58:41;;;;;;;;;;;;;;;17.98;100.00;99858.28;5076874;28;20364;-78
2022/09/01 08:01:10;;;;;;;;;;;;;;;18.17;100.00;99853.59;5060295;28;20375;-78
2022/09/01 08:03:39;;;;;;;;;;;;;;;17.60;100.00;99845.41;5095085;28;20019;-78
2022/09/01 08:06:07;;;;;;;;;;;;;;;17.83;100.00;99850.69;5075601;28;19946;-78
2022/09/01 08:08:36;;;;;;;;;;;;;;;18.18;100.00;99843.06;5060028;28;19927;-77
2022/09/01 08:11:03;;;;;;;;;;;;;;;18.47;100.00;99838.84;5059859;28;20015;-77
2022/09/01 08:13:32;;;;;;;;;;;;;;;18.73;100.00;99823.31;5058215;28;19924;-77
2022/09/01 08:16:03;;;;;;;;;;;;;;;18.74;100.00;99827.72;5056575;28;19925;-77
2022/09/01 08:18:33;;;;;;;;;;;;;;;18.32;100.00;99826.41;5074232;28;19924;-77
2022/09/01 08:21:48;;;;;;;;;;;;;;;18.62;100.00;99828.59;5056691;28;19925;-77
2022/09/01 08:24:26;;;;;;;;;;;;;;;19.39;100.00;99825.63;5074289;28;20291;-77
2022/09/01 08:26:53;;;;;;;;;;;;;;;20.37;100.00;99808.63;5056369;28;20283;-77
2022/09/01 08:29:20;;;;;;;;;;;;;;;20.46;100.00;99805.78;5056187;28;19924;-77
2022/09/01 08:31:47;;;;;;;;;;;;;;;19.84;100.00;99812.91;5055776;28;19924;-77
2022/09/01 08:34:15;;;;;;;;;;;;;;;18.99;100.00;99819.06;5056187;28;19987;-77
2022/09/01 08:36:43;;;;;;;;;;;;;;;18.50;100.00;99829.41;5074028;28;19931;-77
2022/09/01 08:39:11;;;;;;;;;;;;;;;18.84;100.00;99825.75;5054513;28;19925;-77
2022/09/01 08:41:41;;;;;;;;;;;;;;;19.21;100.00;99814.19;5074090;28;19924;-77
2022/09/01 08:44:30;;;;;;;;;;;;;;;20.09;100.00;99819.09;5039135;28;19974;-77
2022/09/01 08:47:15;;;;;;;;;;;;;;;21.00;100.00;99817.09;5056654;28;19925;-77
2022/09/01 08:49:45;;;;;;;;;;;;;;;21.72;100.00;99805.47;5056054;28;19932;-77
2022/09/01 08:52:37;;;;;;;;;;;;;;;22.37;100.00;99805.41;5056349;28;19924;-77
2022/09/01 08:55:20;;;;;;;;;;;;;;;21.99;100.00;99796.81;5056116;28;19936;-77
2022/09/01 08:57:50;;;;;;;;;;;;;;;22.29;100.00;99804.22;5056101;28;19931;-77
2022/09/01 09:00:22;;;;;;;;;;;;;;;22.63;100.00;99800.81;5074056;28;19931;-78
2022/09/01 09:02:57;;;;;;;;;;;;;;;21.98;100.00;99795.25;5073539;28;19925;-77
2022/09/01 09:05:30;;;;;;;;;;;;;;;21.39;100.00;99796.16;5056266;28;19924;-77
2022/09/01 09:08:09;;;;;;;;;;;;;;;21.73;100.00;99798.53;5056007;28;19978;-77
2022/09/01 09:10:42;;;;;;;;;;;;;;;21.28;100.00;99798.75;5073940;28;19925;-77
2022/09/01 09:13:16;;;;;;;;;;;;;;;21.01;100.00;99790.25;5073911;28;19928;-77
2022/09/01 09:16:05;;;;;;;;;;;;;;;21.07;100.00;99792.00;5073859;28;19971;-77
2022/09/01 09:18:36;;;;;;;;;;;;;;;19.95;100.00;99801.91;5073445;28;19946;-77
2022/09/01 09:21:22;;;;;;;;;;;;;;;20.19;100.00;99800.09;5073735;28;19924;-77
2022/09/01 09:23:53;;;;;;;;;;;;;;;20.48;100.00;99801.19;5073679;28;19924;-77
2022/09/01 09:26:22;;;;;;;;;;;;;;;20.35;100.00;99794.09;5073895;28;19932;-77
2022/09/01 09:28:49;;;;;;;;;;;;;;;20.93;100.00;99798.31;5055609;28;19924;-77
2022/09/01 09:31:28;;;;;;;;;;;;;;;20.54;100.00;99785.09;5073650;28;19931;-77
2022/09/01 09:33:56;;;;;;;;;;;;;;;20.57;100.00;99791.91;5073401;28;20451;-77
2022/09/01 09:36:32;;;;;;;;;;;;;;;21.02;100.00;99792.63;5073529;28;19972;-77
2022/09/01 09:39:10;;;;;;;;;;;;;;;21.18;100.00;99792.28;5073432;28;20408;-77
2022/09/01 09:41:38;;;;;;;;;;;;;;;22.13;100.00;99779.03;5074786;28;20431;-77
2022/09/01 09:44:15;;;;;;;;;;;;;;;22.40;100.00;99769.50;5077618;28;19935;-77
2022/09/01 09:46:44;;;;;;;;;;;;;;;22.70;100.00;99760.53;5077198;28;20291;-77
2022/09/01 09:49:23;;;;;;;;;;;;;;;22.55;100.00;99759.72;5077301;28;20374;-77
2022/09/01 09:52:02;;;;;;;;;;;;;;;22.65;100.00;99766.94;5077568;28;19925;-78
2022/09/01 09:54:30;;;;;;;;;;;;;;;22.38;100.00;99777.75;5077473;28;20035;-77
2022/09/01 09:57:16;;;;;;;;;;;;;;;21.42;100.00;99769.59;5059397;28;19932;-78
2022/09/01 09:59:43;;;;;;;;;;;;;;;21.69;100.00;99765.88;5077261;28;19924;-77
2022/09/01 10:02:34;;;;;;;;;;;;;;;21.37;100.00;99767.44;5077168;28;19935;-77
2022/09/01 10:05:19;;;;;;;;;;;;;;;20.90;100.00;99767.25;5077214;28;19955;-77
2022/09/01 10:07:47;;;;;;;;;;;;;;;21.18;100.00;99765.91;5076997;28;20005;-76
2022/09/01 10:10:44;;;;;;;;;;;;;;;21.06;100.00;99775.44;5059255;28;20023;-77
2022/09/01 10:13:16;;;;;;;;;;;;;;;21.06;100.00;99776.22;5043194;28;19925;-78
2022/09/01 10:15:49;;;;;;;;;;;;;;;21.05;100.00;99768.19;5059021;28;19924;-78
2022/09/01 10:18:21;;;;;;;;;;;;;;;20.56;100.00;99770.44;5076978;28;19925;-78
2022/09/01 10:20:58;;;;;;;;;;;;;;;20.41;100.00;99778.00;5077082;28;20291;-77
2022/09/01 10:23:27;;;;;;;;;;;;;;;20.49;100.00;99776.44;5059193;28;19928;-78
2022/09/01 10:25:57;;;;;;;;;;;;;;;20.40;100.00;99767.94;5059104;28;20032;-78
2022/09/01 10:28:25;;;;;;;;;;;;;;;20.71;100.00;99765.69;5059054;28;19938;-77
2022/09/01 10:30:52;;;;;;;;;;;;;;;21.11;100.00;99769.88;5058657;28;20409;-78
2022/09/01 10:33:21;;;;;;;;;;;;;;;21.30;100.00;99762.88;5042740;28;19931;-77
2022/09/01 10:35:49;;;;;;;;;;;;;;;21.01;100.00;99753.34;5042081;28;19979;-78
2022/09/01 10:38:21;;;;;;;;;;;;;;;21.08;100.00;99755.84;5041969;28;19929;-78
2022/09/01 10:41:05;;;;;;;;;;;;;;;21.70;100.00;99736.94;5042372;28;20007;-78
2022/09/01 10:43:39;;;;;;;;;;;;;;;21.44;100.00;99741.50;5058966;28;19924;-78
2022/09/01 10:46:08;;;;;;;;;;;;;;;21.58;100.00;99746.50;5058379;28;19928;-78
2022/09/01 10:48:42;;;;;;;;;;;;;;;21.98;100.00;99737.56;5042005;28;20288;-78
2022/09/01 10:51:12;;;;;;;;;;;;;;;22.22;100.00;99733.41;5058684;28;19924;-78
2022/09/01 10:53:44;;;;;;;;;;;;;;;22.24;100.00;99733.72;5057718;28;19931;-78
2022/09/01 10:56:31;;;;;;;;;;;;;;;21.92;100.00;99728.91;5076329;28;19932;-78
2022/09/01 10:59:10;;;;;;;;;;;;;;;21.52;100.00;99728.50;5041880;28;19928;-77
2022/09/01 11:02:08;;;;;;;;;;;;;;;21.58;100.00;99726.59;5076099;28;19970;-77
2022/09/01 11:04:58;;;;;;;;;;;;;;;21.98;100.00;99718.44;5058297;28;19931;-78
2022/09/01 11:07:29;;;;;;;;;;;;;;;22.57;100.00;99717.31;5058304;28;20020;-77
2022/09/01 11:10:15;;;;;;;;;;;;;;;22.89;100.00;99713.50;5075909;28;19929;-78
2022/09/01 11:13:17;;;;;;;;;;;;;;;23.22;100.00;99704.72;5058129;28;19929;-77
2022/09/01 11:15:44;;;;;;;;;;;;;;;22.73;100.00;99696.13;5042030;28;20299;-78
2022/09/01 11:18:16;;;;;;;;;;;;;;;22.94;100.00;99694.94;5041502;28;19960;-76
2022/09/01 11:20:45;;;;;;;;;;;;;;;22.77;100.00;99696.69;5057998;28;19924;-76
2022/09/01 11:23:12;;;;;;;;;;;;;;;22.77;100.00;99691.78;5058062;28;19982;-76
2022/09/01 11:25:47;;;;;;;;;;;;;;;22.30;100.00;99691.94;5075718;28;19925;-77
2022/09/01 11:28:14;;;;;;;;;;;;;;;22.35;100.00;99694.09;5057479;28;19924;-76
2022/09/01 11:30:51;;;;;;;;;;;;;;;22.54;100.00;99695.53;5041249;28;19932;-76
2022/09/01 11:33:27;;;;;;;;;;;;;;;22.59;100.00;99694.84;5075653;28;19940;-76
2022/09/01 11:36:03;;;;;;;;;;;;;;;22.25;100.00;99695.44;5075130;28;20372;-77
2022/09/01 11:38:57;;;;;;;;;;;;;;;22.70;100.00;99680.78;5074528;28;19924;-77
2022/09/01 11:41:32;;;;;;;;;;;;;;;22.48;100.00;99685.25;5071780;28;19924;-77
2022/09/01 11:44:01;;;;;;;;;;;;;;;22.21;100.00;99682.66;5040880;28;19970;-78
2022/09/01 11:46:33;;;;;;;;;;;;;;;22.26;100.00;99679.94;5057672;28;19955;-78
2022/09/01 11:49:05;;;;;;;;;;;;;;;22.26;100.00;99677.09;5056927;28;19928;-78
2022/09/01 11:51:43;;;;;;;;;;;;;;;22.35;100.00;99667.69;5075131;28;19928;-78
2022/09/01 11:54:11;;;;;;;;;;;;;;;21.97;100.00;99679.88;5067531;28;19955;-78
2022/09/01 11:56:38;;;;;;;;;;;;;;;22.47;100.00;99667.41;5072050;28;19928;-78
2022/09/01 11:59:06;;;;;;;;;;;;;;;21.88;100.00;99671.41;5040389;28;19929;-78
2022/09/01 12:01:34;;;;;;;;;;;;;;;22.28;100.00;99668.84;5074925;28;19931;-78
2022/09/01 12:04:21;;;;;;;;;;;;;;;21.92;100.00;99671.22;5056928;28;19951;-78
2022/09/01 12:07:01;;;;;;;;;;;;;;;22.59;100.00;99657.81;5040746;28;19925;-78
2022/09/01 12:09:32;;;;;;;;;;;;;;;22.61;100.00;99660.94;5056915;28;19928;-78
2022/09/01 12:12:00;;;;;;;;;;;;;;;22.88;100.00;99669.19;5055261;28;19928;-78
2022/09/01 12:14:27;;;;;;;;;;;;;;;22.58;100.00;99667.63;5073904;28;19971;-77
2022/09/01 12:17:03;;;;;;;;;;;;;;;21.66;100.00;99670.91;5056104;28;20349;-77
2022/09/01 12:19:31;;;;;;;;;;;;;;;21.72;100.00;99662.50;5073730;28;20077;-78
2022/09/01 12:22:03;;;;;;;;;;;;;;;21.94;100.00;99663.00;5073812;28;19924;-78
2022/09/01 12:24:32;;;;;;;;;;;;;;;21.71;100.00;99677.97;5039636;28;20283;-77
2022/09/01 12:27:00;;;;;;;;;;;;;;;21.82;100.00;99661.19;5055624;28;20444;-78
2022/09/01 12:29:28;;;;;;;;;;;;;;;22.18;100.00;99670.22;5073591;28;19928;-77
2022/09/01 12:31:58;;;;;;;;;;;;;;;22.41;100.00;99655.13;5073688;28;20298;-78
2022/09/01 12:34:31;;;;;;;;;;;;;;;21.96;100.00;99664.06;5055795;28;19931;-77
2022/09/01 12:37:01;;;;;;;;;;;;;;;22.71;100.00;99665.28;5039075;28;19924;-77
2022/09/01 12:39:34;;;;;;;;;;;;;;;22.82;100.00;99658.97;5073515;28;19920;-78
2022/09/01 12:42:03;;;;;;;;;;;;;;;23.09;100.00;99650.88;5055470;28;19924;-78
2022/09/01 12:44:42;;;;;;;;;;;;;;;22.73;100.00;99651.31;5039252;28;19969;-78
2022/09/01 12:47:12;;;;;;;;;;;;;;;22.85;100.00;99652.28;5022677;28;19963;-78
2022/09/01 12:49:43;;;;;;;;;;;;;;;22.83;100.00;99638.53;5073298;28;19920;-78
2022/09/01 12:52:13;;;;;;;;;;;;;;;22.51;100.00;99656.63;5055571;28;20440;-77
2022/09/01 12:54:41;;;;;;;;;;;;;;;22.59;100.00;99646.44;5055353;28;19946;-78
2022/09/01 12:57:26;;;;;;;;;;;;;;;22.52;100.00;99635.41;5055461;28;20016;-77
2022/09/01 13:00:08;;;;;;;;;;;;;;;22.89;100.00;99636.56;5073371;28;19928;-78
2022/09/01 13:02:43;;;;;;;;;;;;;;;23.15;100.00;99636.72;5055411;28;19925;-78
2022/09/01 13:05:18;;;;;;;;;;;;;;;22.98;100.00;99627.91;5055190;28;19921;-78
2022/09/01 13:07:44;;;;;;;;;;;;;;;23.20;100.00;99623.81;5073176;28;20359;-78